Time;durP1;ratioP1;P1;durP2;ratioP2;P2;SDS_P1;SDS_P2;PMS_P1;PMS_P2;Temp;Humidity;BMP_temperature;BMP_pressure;BME280_temperature;BME280_humidity;BME280_pressure;Samples;Min_cycle;Max_cycle;Signal;HPM_P1;HPM_P2
2020/12/06 00:01:24;;;;;;;37.55;19.92;;;23.10;38.80;;;;;;6164579;28;83889;-65
2020/12/06 00:04:27;;;;;;;39.08;20.98;;;23.00;38.60;;;;;;6164674;28;83171;-66
2020/12/06 00:07:28;;;;;;;36.70;21.20;;;23.00;38.70;;;;;;6149790;28;83541;-66
2020/12/06 00:10:28;;;;;;;38.50;20.58;;;23.00;38.60;;;;;;6149073;28;85760;-66
2020/12/06 00:13:29;;;;;;;37.92;19.88;;;23.00;38.40;;;;;;6146632;28;85998;-66
2020/12/06 00:16:29;;;;;;;33.58;19.63;;;23.00;38.50;;;;;;6147936;28;84433;-65
2020/12/06 00:19:30;;;;;;;34.30;18.90;;;23.00;38.60;;;;;;6147034;28;83543;-65
2020/12/06 00:22:30;;;;;;;34.72;18.67;;;23.00;38.40;;;;;;6168890;28;83186;-64
2020/12/06 00:25:31;;;;;;;35.30;18.13;;;23.00;38.30;;;;;;6155388;28;86068;-66
2020/12/06 00:28:31;;;;;;;34.28;18.35;;;23.00;38.30;;;;;;6168697;28;83417;-66
2020/12/06 00:31:32;;;;;;;34.33;18.95;;;23.00;38.20;;;;;;6144667;28;83654;-67
2020/12/06 00:34:32;;;;;;;33.65;18.52;;;23.00;38.10;;;;;;6169680;28;83253;-67
2020/12/06 00:37:33;;;;;;;32.33;18.88;;;23.00;38.10;;;;;;6152714;28;84350;-66
2020/12/06 00:40:33;;;;;;;31.88;18.17;;;23.00;38.00;;;;;;6145847;28;83353;-67
2020/12/06 00:43:34;;;;;;;31.40;18.58;;;23.00;37.90;;;;;;6176228;28;83864;-66
2020/12/06 00:46:35;;;;;;;33.30;18.42;;;23.00;37.80;;;;;;6185693;28;84086;-67
2020/12/06 00:49:35;;;;;;;34.67;17.73;;;23.00;37.90;;;;;;6178155;28;84849;-67
2020/12/06 00:52:36;;;;;;;32.17;18.73;;;23.00;38.00;;;;;;6177023;28;83475;-68
2020/12/06 00:55:37;;;;;;;31.73;18.40;;;22.90;37.80;;;;;;6169748;28;84810;-67
2020/12/06 00:58:38;;;;;;;32.53;17.52;;;22.90;37.70;;;;;;6182757;28;85346;-68
2020/12/06 01:01:39;;;;;;;31.88;17.33;;;22.90;37.70;;;;;;6171141;28;83369;-68
2020/12/06 01:04:39;;;;;;;30.67;17.08;;;22.90;37.60;;;;;;6181092;27;83376;-68
2020/12/06 01:07:40;;;;;;;28.63;16.70;;;22.90;37.50;;;;;;6168965;28;86012;-68
2020/12/06 01:10:40;;;;;;;30.65;16.63;;;22.90;37.30;;;;;;6183132;28;84184;-66
2020/12/06 01:13:41;;;;;;;26.58;16.30;;;22.90;37.30;;;;;;6176966;28;84054;-67
2020/12/06 01:16:41;;;;;;;27.42;15.57;;;22.90;37.40;;;;;;6174563;27;83706;-66
2020/12/06 01:19:42;;;;;;;27.50;16.20;;;22.90;37.30;;;;;;6161869;28;83596;-66
2020/12/06 01:22:42;;;;;;;31.45;16.85;;;22.90;37.30;;;;;;6170914;28;85104;-66
2020/12/06 01:25:43;;;;;;;28.75;16.77;;;22.90;37.90;;;;;;6169601;27;83325;-65
2020/12/06 01:28:43;;;;;;;30.02;17.75;;;22.90;37.30;;;;;;6182959;28;83169;-66
2020/12/06 01:31:44;;;;;;;28.83;15.80;;;22.90;37.40;;;;;;6172045;28;86634;-65
2020/12/06 01:34:45;;;;;;;28.52;16.27;;;22.90;37.10;;;;;;6186417;28;83550;-65
2020/12/06 01:37:45;;;;;;;25.17;15.18;;;22.90;37.20;;;;;;6172239;28;84084;-66
2020/12/06 01:40:46;;;;;;;25.23;15.45;;;22.80;37.00;;;;;;6172344;28;84153;-66
2020/12/06 01:43:47;;;;;;;28.63;15.85;;;22.80;37.00;;;;;;6164522;28;83193;-66
2020/12/06 01:46:47;;;;;;;27.58;16.33;;;22.80;37.00;;;;;;6158100;28;83390;-66
2020/12/06 01:49:48;;;;;;;26.15;15.45;;;22.80;36.90;;;;;;6151567;28;83602;-66
2020/12/06 01:52:48;;;;;;;26.45;15.60;;;22.80;36.90;;;;;;6154518;28;83570;-66
2020/12/06 01:55:49;;;;;;;26.33;15.90;;;22.80;36.70;;;;;;6153000;28;83204;-66
2020/12/06 01:58:49;;;;;;;28.45;16.92;;;22.80;36.60;;;;;;6158982;28;83537;-67
2020/12/06 02:01:50;;;;;;;25.55;15.50;;;22.80;36.70;;;;;;6150235;28;84307;-67
2020/12/06 02:04:51;;;;;;;29.80;16.77;;;22.80;36.70;;;;;;6149102;28;83304;-67
2020/12/06 02:07:51;;;;;;;29.13;16.17;;;22.80;36.60;;;;;;6155670;28;83244;-66
2020/12/06 02:10:52;;;;;;;25.00;15.52;;;22.80;36.60;;;;;;6171918;28;83384;-68
2020/12/06 02:13:52;;;;;;;27.08;15.57;;;22.80;36.60;;;;;;6186935;27;83325;-67
2020/12/06 02:16:53;;;;;;;28.23;16.42;;;22.80;36.60;;;;;;6186210;28;83854;-67
2020/12/06 02:19:53;;;;;;;27.48;16.60;;;22.80;36.60;;;;;;6184359;28;85426;-67
2020/12/06 02:22:54;;;;;;;27.65;15.68;;;22.80;36.50;;;;;;6189823;28;83315;-67
2020/12/06 02:25:54;;;;;;;26.77;16.83;;;22.80;36.50;;;;;;6188368;28;84505;-67
2020/12/06 02:28:55;;;;;;;29.02;16.20;;;22.80;36.40;;;;;;6183308;28;83377;-66
2020/12/06 02:31:55;;;;;;;25.45;15.60;;;22.80;36.40;;;;;;6178610;28;84229;-66
2020/12/06 02:34:56;;;;;;;26.35;16.27;;;22.80;36.30;;;;;;6166353;27;83250;-66
2020/12/06 02:37:56;;;;;;;27.33;15.45;;;22.80;36.30;;;;;;6187350;28;83481;-66
2020/12/06 02:40:57;;;;;;;28.42;15.82;;;22.80;36.10;;;;;;6179882;27;83527;-65
2020/12/06 02:43:57;;;;;;;25.52;15.32;;;22.80;36.10;;;;;;6176638;28;85375;-66
2020/12/06 02:46:58;;;;;;;25.88;14.35;;;22.80;36.10;;;;;;6167346;27;83291;-66
2020/12/06 02:49:58;;;;;;;25.88;14.80;;;22.80;36.10;;;;;;6176843;28;83625;-66
2020/12/06 02:52:59;;;;;;;28.02;16.13;;;22.80;36.00;;;;;;6177802;28;83802;-66
2020/12/06 02:56:00;;;;;;;27.17;15.32;;;22.80;36.00;;;;;;6166054;28;83406;-65
2020/12/06 02:59:00;;;;;;;25.30;14.82;;;22.80;36.00;;;;;;6153594;28;83465;-65
2020/12/06 03:02:01;;;;;;;25.48;15.10;;;22.80;35.90;;;;;;6143267;28;83288;-66
2020/12/06 03:05:01;;;;;;;23.35;14.40;;;22.80;35.80;;;;;;6164680;28;83515;-67
2020/12/06 03:08:02;;;;;;;26.00;14.45;;;22.80;35.90;;;;;;6162222;28;83217;-67
2020/12/06 03:11:02;;;;;;;28.30;15.63;;;22.70;35.70;;;;;;6176241;28;83582;-66
2020/12/06 03:14:03;;;;;;;24.75;14.25;;;22.70;35.70;;;;;;6167133;28;83827;-66
2020/12/06 03:17:03;;;;;;;26.98;15.02;;;22.70;35.70;;;;;;6176807;28;83924;-65
2020/12/06 03:20:04;;;;;;;25.75;15.45;;;22.70;35.60;;;;;;6166949;28;83289;-66
2020/12/06 03:23:04;;;;;;;25.13;14.63;;;22.70;35.80;;;;;;6158872;28;83798;-65
2020/12/06 03:26:05;;;;;;;24.05;13.85;;;22.70;35.50;;;;;;6149182;28;91035;-57
2020/12/06 03:29:05;;;;;;;23.30;13.95;;;22.70;35.60;;;;;;6150397;28;83681;-62
2020/12/06 03:32:06;;;;;;;24.48;14.38;;;22.70;35.50;;;;;;6160778;28;88177;-64
2020/12/06 03:35:07;;;;;;;28.48;16.23;;;22.70;35.60;;;;;;6154227;28;83365;-66
2020/12/06 03:38:07;;;;;;;22.42;13.95;;;22.60;35.40;;;;;;6181623;28;83369;-67
2020/12/06 03:41:08;;;;;;;26.17;14.23;;;22.70;35.50;;;;;;6188820;27;83136;-65
2020/12/06 03:44:08;;;;;;;23.58;14.25;;;22.60;36.10;;;;;;6191991;28;83723;-66
2020/12/06 03:47:09;;;;;;;26.88;14.35;;;22.60;35.40;;;;;;6192140;27;83105;-67
2020/12/06 03:50:09;;;;;;;22.92;14.20;;;22.60;35.40;;;;;;6185460;28;86179;-66
2020/12/06 03:53:10;;;;;;;24.60;13.95;;;22.60;35.40;;;;;;6185068;28;94073;-66
2020/12/06 03:56:10;;;;;;;22.65;12.65;;;22.60;35.30;;;;;;6193189;28;84010;-64
2020/12/06 03:59:11;;;;;;;21.25;12.40;;;22.70;35.30;;;;;;6192282;28;83514;-65
2020/12/06 04:02:13;;;;;;;22.75;13.95;;;22.70;35.30;;;;;;6171259;27;83579;-65
2020/12/06 04:05:19;;;;;;;21.17;12.55;;;22.60;35.30;;;;;;6182705;28;83895;-65
2020/12/06 04:08:19;;;;;;;22.33;12.88;;;22.70;35.60;;;;;;6175464;27;84075;-64
2020/12/06 04:11:20;;;;;;;23.88;13.45;;;22.70;35.60;;;;;;6174303;28;88450;-67
2020/12/06 04:14:20;;;;;;;22.33;13.38;;;22.70;35.60;;;;;;6174368;27;83157;-67
2020/12/06 04:17:21;;;;;;;22.42;13.43;;;22.70;35.50;;;;;;6168400;28;84814;-66
2020/12/06 04:20:21;;;;;;;19.13;11.63;;;22.70;35.40;;;;;;6175709;28;83551;-66
2020/12/06 04:23:22;;;;;;;21.38;13.10;;;22.70;35.50;;;;;;6180768;27;83206;-66
2020/12/06 04:26:22;;;;;;;20.50;12.40;;;22.70;35.40;;;;;;6175007;28;83509;-66
2020/12/06 04:29:23;;;;;;;20.63;13.10;;;22.70;35.40;;;;;;6173731;27;83308;-66
2020/12/06 04:32:23;;;;;;;21.55;12.88;;;22.70;35.40;;;;;;6178070;28;84191;-66
2020/12/06 04:35:24;;;;;;;21.90;12.68;;;22.70;35.30;;;;;;6172710;27;86556;-67
2020/12/06 04:38:24;;;;;;;19.45;12.77;;;22.70;35.30;;;;;;6178697;28;83496;-66
2020/12/06 04:41:25;;;;;;;21.45;12.52;;;22.70;35.20;;;;;;6174931;28;84051;-63
2020/12/06 04:44:26;;;;;;;20.60;12.57;;;22.70;35.20;;;;;;6175215;28;83285;-66
2020/12/06 04:47:26;;;;;;;20.17;11.70;;;22.60;35.10;;;;;;6173407;28;83814;-66
2020/12/06 04:50:27;;;;;;;20.98;12.60;;;22.70;35.30;;;;;;6170602;28;83214;-66
2020/12/06 04:53:28;;;;;;;17.90;11.57;;;22.70;35.30;;;;;;6171701;27;83573;-65
2020/12/06 04:56:28;;;;;;;20.23;11.93;;;22.70;35.40;;;;;;6186997;28;83395;-65
2020/12/06 04:59:29;;;;;;;22.27;13.27;;;22.60;35.20;;;;;;6173536;28;82948;-65
2020/12/06 05:02:29;;;;;;;20.35;12.00;;;22.60;35.20;;;;;;6171991;28;83382;-65
2020/12/06 05:05:30;;;;;;;19.58;11.88;;;22.60;35.20;;;;;;6176442;28;85886;-65
2020/12/06 05:08:30;;;;;;;20.88;12.43;;;22.60;35.20;;;;;;6180628;27;83975;-65
2020/12/06 05:11:31;;;;;;;18.98;11.70;;;22.60;35.20;;;;;;6189728;28;83677;-65
2020/12/06 05:14:32;;;;;;;21.58;11.80;;;22.60;35.30;;;;;;6158846;28;84148;-66
2020/12/06 05:17:32;;;;;;;22.05;12.15;;;22.60;35.30;;;;;;6180682;28;83445;-65
2020/12/06 05:20:33;;;;;;;19.95;11.45;;;22.60;35.50;;;;;;6179724;28;83399;-65
2020/12/06 05:23:33;;;;;;;19.38;11.40;;;22.60;35.50;;;;;;6161219;28;83473;-66
2020/12/06 05:26:34;;;;;;;17.98;11.63;;;22.60;35.60;;;;;;6180858;28;83641;-65
2020/12/06 05:29:34;;;;;;;18.00;10.63;;;22.60;35.50;;;;;;6150940;28;83775;-66
2020/12/06 05:32:35;;;;;;;19.38;11.75;;;22.60;35.60;;;;;;6154703;28;83840;-65
2020/12/06 05:35:35;;;;;;;20.05;11.45;;;22.50;35.50;;;;;;6174239;27;83586;-66
2020/12/06 05:38:36;;;;;;;16.13;10.40;;;22.50;35.60;;;;;;6167824;28;83589;-66
2020/12/06 05:41:36;;;;;;;17.02;10.65;;;22.60;36.20;;;;;;6153194;28;84184;-65
2020/12/06 05:44:37;;;;;;;18.08;10.45;;;22.60;36.00;;;;;;6172063;28;83291;-65
2020/12/06 05:47:37;;;;;;;15.88;10.40;;;22.60;36.00;;;;;;6173805;28;83591;-65
2020/12/06 05:50:38;;;;;;;17.08;10.35;;;22.60;35.80;;;;;;6181873;28;83810;-67
2020/12/06 05:53:38;;;;;;;17.27;10.30;;;22.60;35.70;;;;;;6177804;28;83216;-69
2020/12/06 05:56:39;;;;;;;17.17;10.40;;;22.60;35.80;;;;;;6181652;28;86098;-68
2020/12/06 05:59:40;;;;;;;20.17;11.80;;;22.50;35.50;;;;;;6173108;28;83438;-68
2020/12/06 06:02:40;;;;;;;23.45;12.00;;;22.50;35.40;;;;;;6175927;27;84812;-68
2020/12/06 06:05:41;;;;;;;19.27;11.18;;;22.60;35.40;;;;;;6179964;28;83251;-68
2020/12/06 06:08:41;;;;;;;18.38;10.85;;;22.50;35.20;;;;;;6184192;28;83163;-67
2020/12/06 06:11:42;;;;;;;18.05;11.25;;;22.50;35.00;;;;;;6155242;28;83506;-68
2020/12/06 06:14:42;;;;;;;21.35;11.85;;;22.50;34.80;;;;;;6175842;28;84425;-68
2020/12/06 06:17:43;;;;;;;18.23;10.90;;;22.50;34.80;;;;;;6151768;27;86401;-67
2020/12/06 06:20:43;;;;;;;21.98;12.07;;;22.50;34.80;;;;;;6184324;28;83200;-68
2020/12/06 06:23:44;;;;;;;18.58;12.10;;;22.50;34.50;;;;;;6175499;27;83657;-66
2020/12/06 06:26:44;;;;;;;19.88;11.77;;;22.50;34.50;;;;;;6176678;28;83514;-69
2020/12/06 06:29:45;;;;;;;20.65;12.02;;;22.50;34.40;;;;;;6176699;27;83356;-69
2020/12/06 06:32:45;;;;;;;21.90;11.90;;;22.50;34.40;;;;;;6175515;28;85151;-68
2020/12/06 06:35:46;;;;;;;19.23;11.43;;;22.50;34.50;;;;;;6177963;28;83499;-62
2020/12/06 06:38:46;;;;;;;21.50;11.65;;;22.60;36.30;;;;;;6175256;28;84071;-70
2020/12/06 06:41:47;;;;;;;20.60;11.73;;;22.70;39.10;;;;;;6175225;27;83588;-72
2020/12/06 06:44:47;;;;;;;21.25;11.48;;;22.80;39.90;;;;;;6176277;28;83519;-71
2020/12/06 06:47:48;;;;;;;22.92;11.70;;;22.80;40.30;;;;;;6182197;27;83299;-73
2020/12/06 06:50:48;;;;;;;21.05;11.05;;;22.80;40.80;;;;;;6179368;28;84964;-70
2020/12/06 06:53:49;;;;;;;19.33;11.20;;;22.90;40.90;;;;;;6175165;27;83803;-70
2020/12/06 06:56:50;;;;;;;18.17;10.70;;;22.90;41.10;;;;;;6185935;28;83420;-66
2020/12/06 06:59:50;;;;;;;19.98;11.23;;;23.00;41.00;;;;;;6167994;28;83366;-73
2020/12/06 07:02:51;;;;;;;23.83;11.88;;;23.00;41.00;;;;;;6148728;28;83744;-67
2020/12/06 07:05:51;;;;;;;20.92;11.77;;;23.10;40.90;;;;;;6151145;28;83521;-71
2020/12/06 07:08:52;;;;;;;19.50;10.82;;;23.10;40.90;;;;;;6157209;28;84162;-68
2020/12/06 07:11:52;;;;;;;20.02;10.98;;;23.20;41.10;;;;;;6173599;28;84281;-69
2020/12/06 07:14:53;;;;;;;25.83;11.43;;;23.20;41.00;;;;;;6184247;28;83195;-70
2020/12/06 07:17:54;;;;;;;18.40;10.80;;;23.30;41.10;;;;;;6168122;28;83778;-68
2020/12/06 07:20:54;;;;;;;18.20;11.40;;;23.30;41.10;;;;;;6173365;28;83767;-69
2020/12/06 07:23:55;;;;;;;17.98;11.32;;;23.30;41.20;;;;;;6172944;27;83414;-66
2020/12/06 07:26:55;;;;;;;21.27;11.15;;;23.30;40.50;;;;;;6173763;28;83575;-70
2020/12/06 07:29:56;;;;;;;20.20;12.30;;;23.30;40.70;;;;;;6173748;28;83429;-70
2020/12/06 07:32:56;;;;;;;17.27;11.38;;;23.40;40.50;;;;;;6174177;27;83059;-68
2020/12/06 07:35:57;;;;;;;18.77;11.45;;;23.40;40.00;;;;;;6173436;28;83484;-65
2020/12/06 07:38:57;;;;;;;28.90;12.60;;;23.40;40.30;;;;;;6170390;27;83773;-66
2020/12/06 07:41:58;;;;;;;24.85;12.32;;;23.50;39.80;;;;;;6176402;28;83330;-67
2020/12/06 07:44:58;;;;;;;24.13;12.40;;;23.50;39.50;;;;;;6172696;28;83609;-72
2020/12/06 07:47:59;;;;;;;21.75;10.68;;;23.50;39.50;;;;;;6172817;28;84328;-69
2020/12/06 07:50:59;;;;;;;15.65;9.05;;;23.60;40.40;;;;;;6168674;28;86822;-69
2020/12/06 07:54:00;;;;;;;16.35;9.15;;;23.60;41.20;;;;;;6176789;28;82870;-69
2020/12/06 07:57:00;;;;;;;15.48;8.18;;;23.70;42.30;;;;;;6178630;27;81548;-67
2020/12/06 08:00:01;;;;;;;15.00;8.70;;;23.70;42.50;;;;;;6178007;28;80644;-70
2020/12/06 08:03:05;;;;;;;15.00;7.60;;;23.70;42.80;;;;;;6178291;28;80649;-67
2020/12/06 08:06:06;;;;;;;15.75;7.60;;;23.70;43.10;;;;;;6177823;28;80990;-68
2020/12/06 08:09:06;;;;;;;13.48;7.72;;;23.70;43.60;;;;;;6169204;27;81053;-69
2020/12/06 08:12:07;;;;;;;11.10;7.25;;;23.80;43.50;;;;;;6164822;28;80881;-70
2020/12/06 08:15:07;;;;;;;12.02;7.78;;;23.80;43.70;;;;;;6177829;27;80844;-69
2020/12/06 08:18:08;;;;;;;14.18;8.32;;;23.90;43.40;;;;;;6191439;28;80863;-69
2020/12/06 08:21:08;;;;;;;14.43;8.30;;;23.90;43.30;;;;;;6172130;28;81139;-66
2020/12/06 08:24:09;;;;;;;14.55;8.20;;;23.90;43.20;;;;;;6158321;28;80645;-64
2020/12/06 08:27:09;;;;;;;14.05;8.40;;;24.00;43.20;;;;;;6167570;28;80542;-68
2020/12/06 08:30:10;;;;;;;11.48;7.60;;;24.00;44.10;;;;;;6160651;28;81096;-69
2020/12/06 08:33:10;;;;;;;11.57;7.22;;;24.00;43.20;;;;;;6147410;28;84143;-67
2020/12/06 08:36:11;;;;;;;9.55;6.65;;;24.20;43.70;;;;;;6160664;28;80870;-71
2020/12/06 08:39:11;;;;;;;12.23;7.00;;;24.20;43.80;;;;;;6131891;28;80738;-73
2020/12/06 08:42:12;;;;;;;11.50;8.02;;;24.30;44.30;;;;;;6162083;28;81091;-70
2020/12/06 08:45:13;;;;;;;11.98;7.97;;;24.30;44.50;;;;;;6177100;28;80500;-71
2020/12/06 08:48:13;;;;;;;12.65;7.30;;;24.30;44.60;;;;;;6174862;28;80720;-72
2020/12/06 08:51:14;;;;;;;14.27;8.02;;;24.40;44.50;;;;;;6177178;27;81111;-72
2020/12/06 08:54:14;;;;;;;13.07;7.90;;;24.40;44.70;;;;;;6164796;28;80400;-74
2020/12/06 08:57:15;;;;;;;11.48;6.82;;;24.50;44.50;;;;;;6149295;28;81048;-74
2020/12/06 09:00:15;;;;;;;12.23;7.30;;;24.50;44.30;;;;;;6148343;28;85048;-68
2020/12/06 09:03:16;;;;;;;14.13;7.45;;;24.60;44.50;;;;;;6158407;28;80763;-71
2020/12/06 09:06:16;;;;;;;10.73;6.75;;;24.60;44.40;;;;;;6167356;28;80703;-74
2020/12/06 09:09:17;;;;;;;9.23;5.93;;;24.60;44.50;;;;;;6165612;28;81114;-71
2020/12/06 09:12:18;;;;;;;8.55;5.47;;;24.70;44.80;;;;;;6174237;28;80696;-71
2020/12/06 09:15:18;;;;;;;12.60;6.10;;;24.80;44.90;;;;;;6173036;27;80805;-71
2020/12/06 09:18:19;;;;;;;10.25;6.45;;;24.80;44.80;;;;;;6176339;28;81005;-72
2020/12/06 09:21:19;;;;;;;9.90;5.43;;;24.90;44.70;;;;;;6180140;27;80706;-73
2020/12/06 09:24:20;;;;;;;7.35;4.95;;;24.90;44.60;;;;;;6178766;28;80974;-68
2020/12/06 09:27:20;;;;;;;9.38;5.90;;;24.90;45.00;;;;;;6178296;27;80831;-73
2020/12/06 09:30:21;;;;;;;10.35;5.57;;;25.00;44.90;;;;;;6179140;28;81874;-71
2020/12/06 09:33:21;;;;;;;7.93;5.07;;;25.00;44.50;;;;;;6187372;28;80953;-71
2020/12/06 09:36:22;;;;;;;7.88;5.20;;;25.10;44.90;;;;;;6171897;28;80595;-68
2020/12/06 09:39:22;;;;;;;6.20;4.50;;;25.10;44.90;;;;;;6154100;28;80733;-70
2020/12/06 09:42:23;;;;;;;5.90;4.10;;;25.10;45.10;;;;;;6177633;28;80552;-68
2020/12/06 09:45:24;;;;;;;6.25;4.15;;;25.20;45.20;;;;;;6196192;28;80517;-72
2020/12/06 09:48:25;;;;;;;9.82;4.35;;;25.30;45.50;;;;;;6192030;28;80466;-71
2020/12/06 09:51:25;;;;;;;7.65;3.80;;;25.30;45.30;;;;;;6184880;28;80507;-73
2020/12/06 09:54:26;;;;;;;11.00;3.72;;;25.30;45.00;;;;;;6171335;28;80410;-71
2020/12/06 09:57:26;;;;;;;6.25;4.18;;;25.30;44.80;;;;;;6163333;28;80762;-67
2020/12/06 10:00:27;;;;;;;8.35;4.50;;;25.30;44.40;;;;;;6178309;28;81136;-70
2020/12/06 10:03:27;;;;;;;8.57;5.47;;;25.30;43.80;;;;;;6178418;28;80847;-65
2020/12/06 10:06:28;;;;;;;16.48;5.57;;;25.20;43.20;;;;;;6167173;28;80945;-66
2020/12/06 10:09:30;;;;;;;8.38;4.50;;;25.30;42.90;;;;;;6154898;28;80742;-66
2020/12/06 10:12:30;;;;;;;9.98;4.90;;;25.20;42.70;;;;;;6168325;28;81008;-65
2020/12/06 10:15:31;;;;;;;9.65;4.95;;;25.20;42.40;;;;;;6166508;28;81278;-65
2020/12/06 10:18:31;;;;;;;9.27;5.35;;;25.20;42.60;;;;;;6166689;28;80491;-66
2020/12/06 10:21:32;;;;;;;9.32;5.03;;;25.20;42.30;;;;;;6179278;27;84810;-67
2020/12/06 10:24:32;;;;;;;6.30;4.22;;;25.20;41.60;;;;;;6179789;28;80702;-68
2020/12/06 10:27:33;;;;;;;6.93;4.00;;;25.30;39.00;;;;;;6167703;28;80968;-68
2020/12/06 10:30:33;;;;;;;5.25;4.00;;;25.30;40.20;;;;;;6153332;28;80459;-66
2020/12/06 10:33:34;;;;;;;8.43;3.85;;;25.40;38.00;;;;;;6148076;28;81079;-68
2020/12/06 10:36:34;;;;;;;7.25;3.72;;;25.40;37.20;;;;;;6152481;28;81826;-65
2020/12/06 10:39:35;;;;;;;7.22;3.70;;;25.40;36.80;;;;;;6169431;28;80632;-67
2020/12/06 10:42:36;;;;;;;5.97;2.95;;;25.40;35.80;;;;;;6176114;28;80485;-67
2020/12/06 10:45:36;;;;;;;5.70;3.42;;;25.40;35.70;;;;;;6178817;27;81628;-67
2020/12/06 10:48:37;;;;;;;4.05;2.92;;;25.50;34.40;;;;;;6177749;28;80593;-67
2020/12/06 10:51:37;;;;;;;7.25;3.15;;;25.50;34.20;;;;;;6177242;28;80766;-68
2020/12/06 10:54:38;;;;;;;5.18;2.67;;;25.40;33.60;;;;;;6178262;28;81255;-68
2020/12/06 10:57:38;;;;;;;6.35;3.30;;;25.30;33.10;;;;;;6177863;27;80748;-61
2020/12/06 11:00:39;;;;;;;3.53;2.72;;;25.20;32.90;;;;;;6178833;28;81514;-62
2020/12/06 11:03:40;;;;;;;8.10;2.92;;;25.30;33.40;;;;;;6178365;27;81088;-63
2020/12/06 11:06:40;;;;;;;7.63;3.28;;;25.30;33.60;;;;;;6179916;28;81436;-63
2020/12/06 11:09:41;;;;;;;9.70;3.03;;;25.40;33.80;;;;;;6177927;27;80661;-62
2020/12/06 11:12:41;;;;;;;4.55;3.28;;;25.50;34.90;;;;;;6175431;28;83218;-62
2020/12/06 11:15:42;;;;;;;5.35;3.63;;;25.50;32.90;;;;;;6177088;28;81482;-63
2020/12/06 11:18:42;;;;;;;5.32;3.95;;;25.50;32.70;;;;;;6177359;28;81706;-62
2020/12/06 11:21:43;;;;;;;5.88;3.95;;;25.60;33.00;;;;;;6177311;27;81571;-63
2020/12/06 11:24:43;;;;;;;5.47;4.00;;;25.60;33.40;;;;;;6176667;28;81476;-61
2020/12/06 11:27:44;;;;;;;7.22;4.05;;;25.70;32.00;;;;;;6174617;27;82027;-62
2020/12/06 11:30:44;;;;;;;5.25;3.78;;;25.60;30.90;;;;;;6177742;28;81071;-63
2020/12/06 11:33:45;;;;;;;7.57;4.22;;;25.60;31.60;;;;;;6170525;28;80844;-66
2020/12/06 11:36:46;;;;;;;6.50;3.95;;;25.60;31.60;;;;;;6176924;28;81588;-67
2020/12/06 11:39:46;;;;;;;4.85;3.88;;;25.60;32.00;;;;;;6184442;27;81261;-64
2020/12/06 11:42:47;;;;;;;7.43;4.97;;;25.50;31.10;;;;;;6175472;28;89292;-64
2020/12/06 11:45:47;;;;;;;5.35;4.10;;;25.50;31.30;;;;;;6175846;27;80709;-67
2020/12/06 11:48:48;;;;;;;7.35;4.00;;;25.50;32.00;;;;;;6176854;28;80952;-67
2020/12/06 11:51:49;;;;;;;9.60;4.80;;;25.60;30.90;;;;;;6176192;27;80689;-65
2020/12/06 11:54:49;;;;;;;6.35;4.22;;;25.50;30.20;;;;;;6176322;28;80630;-67
2020/12/06 11:57:50;;;;;;;8.25;4.20;;;25.40;30.00;;;;;;6183190;28;80946;-61
2020/12/06 12:00:51;;;;;;;6.75;3.97;;;25.30;29.80;;;;;;6166743;28;80770;-64
2020/12/06 12:03:51;;;;;;;8.20;4.90;;;25.20;30.00;;;;;;6159075;28;81001;-64
2020/12/06 12:06:52;;;;;;;6.70;3.90;;;25.10;30.40;;;;;;6159920;27;80758;-58
2020/12/06 12:09:52;;;;;;;6.95;4.18;;;25.10;29.50;;;;;;6150259;28;80789;-58
2020/12/06 12:12:53;;;;;;;6.68;3.88;;;24.90;29.60;;;;;;6148466;28;80438;-59
2020/12/06 12:15:53;;;;;;;7.53;4.13;;;24.80;29.60;;;;;;6149038;28;80577;-61
2020/12/06 12:18:54;;;;;;;6.88;4.18;;;24.80;29.30;;;;;;6145775;28;81397;-62
2020/12/06 12:21:54;;;;;;;6.53;3.95;;;24.60;29.20;;;;;;6165324;28;80788;-62
2020/12/06 12:24:55;;;;;;;8.57;4.03;;;24.40;29.20;;;;;;6172145;27;82731;-64
2020/12/06 12:27:55;;;;;;;9.38;4.32;;;24.30;29.50;;;;;;6173566;28;81219;-62
2020/12/06 12:30:56;;;;;;;4.88;3.40;;;24.30;29.30;;;;;;6173051;27;81067;-64
2020/12/06 12:33:56;;;;;;;4.00;2.95;;;24.30;29.30;;;;;;6172454;28;81023;-62
2020/12/06 12:36:57;;;;;;;7.32;3.63;;;24.30;29.40;;;;;;6175499;28;82934;-65
2020/12/06 12:39:57;;;;;;;8.30;3.35;;;24.20;29.70;;;;;;6158111;28;81556;-63
2020/12/06 12:42:58;;;;;;;5.05;3.10;;;24.30;29.30;;;;;;6159806;28;82383;-63
2020/12/06 12:45:58;;;;;;;5.55;3.40;;;24.20;29.50;;;;;;6168835;28;80824;-62
2020/12/06 12:48:59;;;;;;;4.93;3.10;;;24.20;29.60;;;;;;6170984;28;82795;-46
2020/12/06 12:52:00;;;;;;;7.18;3.47;;;24.20;29.90;;;;;;6169521;28;81592;-48
2020/12/06 12:55:00;;;;;;;3.95;3.20;;;24.50;29.00;;;;;;6171516;28;81121;-47
2020/12/06 12:58:02;;;;;;;5.00;3.08;;;24.60;28.70;;;;;;6172307;28;80453;-47
2020/12/06 13:01:02;;;;;;;4.93;2.92;;;24.70;28.50;;;;;;6175444;28;80768;-47
2020/12/06 13:04:03;;;;;;;5.63;3.13;;;24.50;28.30;;;;;;6174151;27;80689;-47
2020/12/06 13:07:03;;;;;;;5.03;3.15;;;24.50;28.40;;;;;;6174429;28;83542;-46
2020/12/06 13:10:04;;;;;;;6.47;3.45;;;24.40;28.40;;;;;;6167988;28;80774;-47
2020/12/06 13:13:05;;;;;;;4.95;2.92;;;24.40;28.50;;;;;;6174667;28;80794;-46
2020/12/06 13:16:05;;;;;;;5.78;3.58;;;24.30;28.70;;;;;;6149165;28;82816;-47
2020/12/06 13:19:06;;;;;;;7.18;3.33;;;24.10;28.70;;;;;;6150068;28;80781;-46
2020/12/06 13:22:07;;;;;;;5.20;2.92;;;23.90;28.90;;;;;;6164776;28;80599;-47
2020/12/06 13:25:08;;;;;;;5.25;2.90;;;23.60;29.10;;;;;;6169019;28;80666;-46
2020/12/06 13:28:08;;;;;;;3.97;3.13;;;23.30;30.00;;;;;;6159051;28;80195;-48
2020/12/06 13:31:09;;;;;;;4.47;2.92;;;23.60;29.80;;;;;;6161714;28;80933;-47
2020/12/06 13:34:09;;;;;;;3.92;2.92;;;23.90;29.90;;;;;;6174983;28;81051;-48
2020/12/06 13:37:10;;;;;;;4.88;3.67;;;24.10;30.00;;;;;;6175168;28;80770;-45
2020/12/06 13:40:10;;;;;;;8.63;2.80;;;24.30;30.40;;;;;;6175182;28;81323;-46
2020/12/06 13:43:11;;;;;;;4.68;3.28;;;24.50;31.30;;;;;;6166680;28;81582;-46
2020/12/06 13:46:11;;;;;;;5.15;3.03;;;24.70;31.30;;;;;;6156749;28;80829;-48
2020/12/06 13:49:12;;;;;;;6.35;3.70;;;24.80;31.40;;;;;;6150975;28;87793;-46
2020/12/06 13:52:13;;;;;;;5.22;3.42;;;24.90;31.50;;;;;;6148256;28;81011;-50
2020/12/06 13:55:13;;;;;;;4.47;3.53;;;25.00;31.70;;;;;;6173463;28;81643;-47
2020/12/06 13:58:14;;;;;;;6.13;3.78;;;25.00;31.90;;;;;;6190993;28;81732;-49
2020/12/06 14:01:14;;;;;;;7.70;3.67;;;25.00;31.70;;;;;;6192239;28;80727;-46
2020/12/06 14:04:15;;;;;;;4.22;3.35;;;25.00;31.80;;;;;;6185948;28;80755;-45
2020/12/06 14:07:15;;;;;;;6.97;3.10;;;25.10;32.00;;;;;;6179610;27;81226;-47
2020/12/06 14:10:16;;;;;;;23.52;3.42;;;25.20;32.30;;;;;;6160314;28;80854;-47
2020/12/06 14:13:17;;;;;;;5.45;3.20;;;25.30;32.90;;;;;;6169098;28;82047;-45
2020/12/06 14:16:17;;;;;;;4.97;3.50;;;25.30;33.40;;;;;;6180470;28;81725;-48
2020/12/06 14:19:18;;;;;;;10.48;3.72;;;25.40;33.70;;;;;;6183535;27;80953;-49
2020/12/06 14:22:18;;;;;;;7.72;3.42;;;25.40;34.60;;;;;;6159990;28;81630;-41
2020/12/06 14:25:19;;;;;;;5.32;3.38;;;25.40;34.70;;;;;;6168141;28;80453;-41
2020/12/06 14:28:19;;;;;;;9.73;3.67;;;25.30;35.30;;;;;;6178142;27;80440;-42
2020/12/06 14:31:20;;;;;;;8.30;3.95;;;25.40;35.50;;;;;;6177283;28;80605;-42
2020/12/06 14:34:20;;;;;;;10.57;3.78;;;25.40;35.80;;;;;;6178005;28;80693;-43
2020/12/06 14:37:21;;;;;;;4.88;3.55;;;25.40;35.90;;;;;;6160721;28;81595;-42
2020/12/06 14:40:21;;;;;;;5.45;3.20;;;25.40;36.10;;;;;;6175400;28;80818;-42
2020/12/06 14:43:22;;;;;;;5.65;3.92;;;25.40;36.20;;;;;;6176741;28;80708;-41
2020/12/06 14:46:22;;;;;;;5.10;3.42;;;25.30;35.90;;;;;;6175034;28;83686;-41
2020/12/06 14:49:23;;;;;;;7.22;3.40;;;25.30;36.00;;;;;;6193907;28;80771;-59
2020/12/06 14:52:23;;;;;;;6.78;4.47;;;25.30;35.80;;;;;;6175458;28;80730;-66
2020/12/06 14:55:25;;;;;;;5.20;3.72;;;25.10;36.10;;;;;;6159448;28;82134;-67
2020/12/06 14:58:25;;;;;;;4.75;3.50;;;25.00;36.30;;;;;;6169376;28;80567;-65
2020/12/06 15:01:26;;;;;;;5.82;4.07;;;25.00;36.30;;;;;;6153443;28;80784;-68
2020/12/06 15:04:26;;;;;;;6.18;4.50;;;24.90;36.40;;;;;;6151327;28;81661;-66
2020/12/06 15:07:27;;;;;;;5.93;3.95;;;24.80;36.60;;;;;;6169385;28;80521;-69
2020/12/06 15:10:27;;;;;;;6.55;3.80;;;24.80;36.70;;;;;;6174618;28;80704;-67
2020/12/06 15:13:28;;;;;;;6.53;4.30;;;24.70;36.60;;;;;;6155307;28;83546;-68
2020/12/06 15:16:29;;;;;;;8.32;4.43;;;24.60;36.60;;;;;;6173619;28;80655;-66
2020/12/06 15:19:29;;;;;;;7.03;3.90;;;24.60;36.50;;;;;;6171833;28;80764;-65
2020/12/06 15:22:30;;;;;;;5.78;4.35;;;24.60;36.40;;;;;;6177958;28;80817;-66
2020/12/06 15:25:30;;;;;;;5.60;3.95;;;24.60;36.40;;;;;;6176613;28;81439;-71